sensor_id;sensor_type;location;lat;lon;timestamp;temperature;humidity
31309;DHT22;17936;52.446;10.840;2023-04-23T00:01:10;15.70;99.90
31309;DHT22;17936;52.446;10.840;2023-04-23T00:03:37;15.70;99.90
31309;DHT22;17936;52.446;10.840;2023-04-23T00:06:06;15.70;99.90
31309;DHT22;17936;52.446;10.840;2023-04-23T00:08:38;15.70;99.90
31309;DHT22;17936;52.446;10.840;2023-04-23T00:11:04;15.70;99.90
31309;DHT22;17936;52.446;10.840;2023-04-23T00:13:31;15.70;99.90
31309;DHT22;17936;52.446;10.840;2023-04-23T00:15:57;15.60;99.90
31309;DHT22;17936;52.446;10.840;2023-04-23T00:18:22;15.60;99.90
31309;DHT22;17936;52.446;10.840;2023-04-23T00:20:48;15.60;99.90
31309;DHT22;17936;52.446;10.840;2023-04-23T00:23:13;15.60;99.90
31309;DHT22;17936;52.446;10.840;2023-04-23T00:25:39;15.50;99.90
31309;DHT22;17936;52.446;10.840;2023-04-23T00:28:04;15.50;99.90
31309;DHT22;17936;52.446;10.840;2023-04-23T00:30:30;15.40;99.90
31309;DHT22;17936;52.446;10.840;2023-04-23T00:32:56;15.50;99.90
31309;DHT22;17936;52.446;10.840;2023-04-23T00:35:21;15.50;99.90
31309;DHT22;17936;52.446;10.840;2023-04-23T00:37:47;15.50;99.90
31309;DHT22;17936;52.446;10.840;2023-04-23T00:40:13;15.40;99.90
31309;DHT22;17936;52.446;10.840;2023-04-23T00:42:39;15.50;99.90
31309;DHT22;17936;52.446;10.840;2023-04-23T00:45:06;15.40;99.90
31309;DHT22;17936;52.446;10.840;2023-04-23T00:47:33;15.40;99.90
31309;DHT22;17936;52.446;10.840;2023-04-23T00:49:59;15.40;99.90
31309;DHT22;17936;52.446;10.840;2023-04-23T00:52:25;15.30;99.90
31309;DHT22;17936;52.446;10.840;2023-04-23T00:54:50;15.30;99.90
31309;DHT22;17936;52.446;10.840;2023-04-23T00:57:16;15.30;99.90
31309;DHT22;17936;52.446;10.840;2023-04-23T00:59:42;15.30;99.90
31309;DHT22;17936;52.446;10.840;2023-04-23T01:02:08;15.30;99.90
31309;DHT22;17936;52.446;10.840;2023-04-23T01:04:34;15.30;99.90
31309;DHT22;17936;52.446;10.840;2023-04-23T01:07:01;15.30;99.90
31309;DHT22;17936;52.446;10.840;2023-04-23T01:09:27;15.30;99.90
31309;DHT22;17936;52.446;10.840;2023-04-23T01:11:53;15.20;99.90
31309;DHT22;17936;52.446;10.840;2023-04-23T01:14:19;15.20;99.90
31309;DHT22;17936;52.446;10.840;2023-04-23T01:16:45;15.30;99.90
31309;DHT22;17936;52.446;10.840;2023-04-23T01:19:11;15.30;99.90
31309;DHT22;17936;52.446;10.840;2023-04-23T01:21:38;15.30;99.90
31309;DHT22;17936;52.446;10.840;2023-04-23T01:24:06;15.40;99.90
31309;DHT22;17936;52.446;10.840;2023-04-23T01:26:33;15.20;99.90
31309;DHT22;17936;52.446;10.840;2023-04-23T01:28:59;15.20;99.90
31309;DHT22;17936;52.446;10.840;2023-04-23T01:31:26;15.30;99.90
31309;DHT22;17936;52.446;10.840;2023-04-23T01:33:53;15.30;99.90
31309;DHT22;17936;52.446;10.840;2023-04-23T01:36:21;15.20;99.90
31309;DHT22;17936;52.446;10.840;2023-04-23T01:38:47;15.20;99.90
31309;DHT22;17936;52.446;10.840;2023-04-23T01:41:12;15.20;99.90
31309;DHT22;17936;52.446;10.840;2023-04-23T01:43:39;15.30;99.90
31309;DHT22;17936;52.446;10.840;2023-04-23T01:46:06;15.30;99.90
31309;DHT22;17936;52.446;10.840;2023-04-23T01:48:31;15.20;99.90
31309;DHT22;17936;52.446;10.840;2023-04-23T01:50:57;15.20;99.90
31309;DHT22;17936;52.446;10.840;2023-04-23T01:53:22;15.30;99.90
31309;DHT22;17936;52.446;10.840;2023-04-23T01:55:49;15.20;99.90
31309;DHT22;17936;52.446;10.840;2023-04-23T01:58:16;15.10;99.90
31309;DHT22;17936;52.446;10.840;2023-04-23T02:00:42;15.10;99.90
31309;DHT22;17936;52.446;10.840;2023-04-23T02:03:08;15.00;99.90
31309;DHT22;17936;52.446;10.840;2023-04-23T02:05:34;15.10;99.90
31309;DHT22;17936;52.446;10.840;2023-04-23T02:08:00;15.10;99.90
31309;DHT22;17936;52.446;10.840;2023-04-23T02:10:27;15.10;99.90
31309;DHT22;17936;52.446;10.840;2023-04-23T02:12:54;15.20;99.90
31309;DHT22;17936;52.446;10.840;2023-04-23T02:15:19;15.10;99.90
31309;DHT22;17936;52.446;10.840;2023-04-23T02:17:45;15.10;99.90
31309;DHT22;17936;52.446;10.840;2023-04-23T02:20:11;15.10;99.90
31309;DHT22;17936;52.446;10.840;2023-04-23T02:22:38;15.00;99.90
31309;DHT22;17936;52.446;10.840;2023-04-23T02:25:05;15.10;99.90
31309;DHT22;17936;52.446;10.840;2023-04-23T02:27:31;15.20;92.60
31309;DHT22;17936;52.446;10.840;2023-04-23T02:29:57;15.20;99.90
31309;DHT22;17936;52.446;10.840;2023-04-23T02:32:23;15.00;99.90
31309;DHT22;17936;52.446;10.840;2023-04-23T02:34:49;14.90;2.00
31309;DHT22;17936;52.446;10.840;2023-04-23T02:37:14;14.90;13.30
31309;DHT22;17936;52.446;10.840;2023-04-23T02:39:40;14.90;11.30
31309;DHT22;17936;52.446;10.840;2023-04-23T02:42:05;14.80;58.10
31309;DHT22;17936;52.446;10.840;2023-04-23T02:44:31;14.70;79.50
31309;DHT22;17936;52.446;10.840;2023-04-23T02:46:57;14.60;88.10
31309;DHT22;17936;52.446;10.840;2023-04-23T02:49:22;14.60;97.00
31309;DHT22;17936;52.446;10.840;2023-04-23T02:51:48;14.60;99.90
31309;DHT22;17936;52.446;10.840;2023-04-23T02:54:13;14.50;99.90
31309;DHT22;17936;52.446;10.840;2023-04-23T02:56:39;14.50;99.90
31309;DHT22;17936;52.446;10.840;2023-04-23T02:59:05;14.50;99.90
31309;DHT22;17936;52.446;10.840;2023-04-23T03:01:31;14.40;99.90
31309;DHT22;17936;52.446;10.840;2023-04-23T03:03:57;14.40;99.90
31309;DHT22;17936;52.446;10.840;2023-04-23T03:06:23;14.30;99.90
31309;DHT22;17936;52.446;10.840;2023-04-23T03:08:49;14.20;99.90
31309;DHT22;17936;52.446;10.840;2023-04-23T03:11:14;14.10;99.90
31309;DHT22;17936;52.446;10.840;2023-04-23T03:13:40;14.10;99.90
31309;DHT22;17936;52.446;10.840;2023-04-23T03:16:06;14.10;99.90
31309;DHT22;17936;52.446;10.840;2023-04-23T03:18:31;14.10;99.90
31309;DHT22;17936;52.446;10.840;2023-04-23T03:20:57;14.00;99.90
31309;DHT22;17936;52.446;10.840;2023-04-23T03:23:23;13.90;99.90
31309;DHT22;17936;52.446;10.840;2023-04-23T03:25:49;13.90;99.90
31309;DHT22;17936;52.446;10.840;2023-04-23T03:28:15;13.80;99.90
31309;DHT22;17936;52.446;10.840;2023-04-23T03:30:40;13.70;99.90
31309;DHT22;17936;52.446;10.840;2023-04-23T03:33:06;13.60;99.90
31309;DHT22;17936;52.446;10.840;2023-04-23T03:35:31;13.70;99.90
31309;DHT22;17936;52.446;10.840;2023-04-23T03:37:57;13.60;99.90
31309;DHT22;17936;52.446;10.840;2023-04-23T03:40:22;13.40;99.90
31309;DHT22;17936;52.446;10.840;2023-04-23T03:42:48;13.10;99.90
31309;DHT22;17936;52.446;10.840;2023-04-23T03:45:14;12.90;99.90
31309;DHT22;17936;52.446;10.840;2023-04-23T03:47:41;12.70;99.90
31309;DHT22;17936;52.446;10.840;2023-04-23T03:50:07;12.60;99.90
31309;DHT22;17936;52.446;10.840;2023-04-23T03:52:34;12.50;99.90
31309;DHT22;17936;52.446;10.840;2023-04-23T03:54:59;12.60;99.90
31309;DHT22;17936;52.446;10.840;2023-04-23T03:57:25;12.60;99.90
31309;DHT22;17936;52.446;10.840;2023-04-23T03:59:51;12.50;99.90
31309;DHT22;17936;52.446;10.840;2023-04-23T04:02:16;12.50;99.90
31309;DHT22;17936;52.446;10.840;2023-04-23T04:04:42;12.50;99.90
31309;DHT22;17936;52.446;10.840;2023-04-23T04:07:11;12.50;99.90
31309;DHT22;17936;52.446;10.840;2023-04-23T04:09:37;12.50;99.90
31309;DHT22;17936;52.446;10.840;2023-04-23T04:12:03;12.50;99.90
31309;DHT22;17936;52.446;10.840;2023-04-23T04:14:30;12.50;99.90
31309;DHT22;17936;52.446;10.840;2023-04-23T04:16:56;12.50;99.90
31309;DHT22;17936;52.446;10.840;2023-04-23T04:19:21;12.50;99.90
31309;DHT22;17936;52.446;10.840;2023-04-23T04:21:47;12.40;99.90
31309;DHT22;17936;52.446;10.840;2023-04-23T04:24:12;12.40;99.90
31309;DHT22;17936;52.446;10.840;2023-04-23T04:26:38;12.40;99.90
31309;DHT22;17936;52.446;10.840;2023-04-23T04:29:04;12.40;99.90
31309;DHT22;17936;52.446;10.840;2023-04-23T04:31:30;12.40;99.90
31309;DHT22;17936;52.446;10.840;2023-04-23T04:33:56;12.40;99.90
31309;DHT22;17936;52.446;10.840;2023-04-23T04:36:23;12.40;99.90
31309;DHT22;17936;52.446;10.840;2023-04-23T04:38:49;12.40;99.90
31309;DHT22;17936;52.446;10.840;2023-04-23T04:41:16;12.40;99.90
31309;DHT22;17936;52.446;10.840;2023-04-23T04:43:42;12.40;99.90
31309;DHT22;17936;52.446;10.840;2023-04-23T04:46:08;12.30;99.90
31309;DHT22;17936;52.446;10.840;2023-04-23T04:48:36;12.30;99.90
31309;DHT22;17936;52.446;10.840;2023-04-23T04:51:01;12.30;99.90
31309;DHT22;17936;52.446;10.840;2023-04-23T04:53:27;12.20;99.90
31309;DHT22;17936;52.446;10.840;2023-04-23T04:55:53;12.30;99.90
31309;DHT22;17936;52.446;10.840;2023-04-23T04:58:18;12.30;99.90
31309;DHT22;17936;52.446;10.840;2023-04-23T05:00:44;12.40;99.90
31309;DHT22;17936;52.446;10.840;2023-04-23T05:03:11;12.40;99.90
31309;DHT22;17936;52.446;10.840;2023-04-23T05:05:36;12.30;99.90
31309;DHT22;17936;52.446;10.840;2023-04-23T05:08:02;12.30;99.90
31309;DHT22;17936;52.446;10.840;2023-04-23T05:10:28;12.20;99.90
31309;DHT22;17936;52.446;10.840;2023-04-23T05:12:55;12.30;99.90
31309;DHT22;17936;52.446;10.840;2023-04-23T05:15:21;12.30;99.90
31309;DHT22;17936;52.446;10.840;2023-04-23T05:17:47;12.20;99.90
31309;DHT22;17936;52.446;10.840;2023-04-23T05:20:14;12.20;99.90
31309;DHT22;17936;52.446;10.840;2023-04-23T05:22:41;12.20;99.90
31309;DHT22;17936;52.446;10.840;2023-04-23T05:25:07;12.20;99.90
31309;DHT22;17936;52.446;10.840;2023-04-23T05:27:34;12.20;99.90
31309;DHT22;17936;52.446;10.840;2023-04-23T05:30:01;12.20;99.90
31309;DHT22;17936;52.446;10.840;2023-04-23T05:32:27;12.20;99.90
31309;DHT22;17936;52.446;10.840;2023-04-23T05:34:52;12.20;99.90
31309;DHT22;17936;52.446;10.840;2023-04-23T05:37:18;12.00;99.90
31309;DHT22;17936;52.446;10.840;2023-04-23T05:39:43;12.10;99.90
31309;DHT22;17936;52.446;10.840;2023-04-23T05:42:10;12.10;99.90
31309;DHT22;17936;52.446;10.840;2023-04-23T05:44:35;12.00;99.90
31309;DHT22;17936;52.446;10.840;2023-04-23T05:47:01;12.10;99.90
31309;DHT22;17936;52.446;10.840;2023-04-23T05:49:26;12.10;99.90
31309;DHT22;17936;52.446;10.840;2023-04-23T05:51:52;12.00;99.90
31309;DHT22;17936;52.446;10.840;2023-04-23T05:54:18;12.00;99.90
31309;DHT22;17936;52.446;10.840;2023-04-23T05:56:43;12.00;99.90
31309;DHT22;17936;52.446;10.840;2023-04-23T05:59:10;12.00;99.90
31309;DHT22;17936;52.446;10.840;2023-04-23T06:01:35;12.00;99.90
31309;DHT22;17936;52.446;10.840;2023-04-23T06:04:02;12.00;99.90
31309;DHT22;17936;52.446;10.840;2023-04-23T06:06:27;12.00;99.90
31309;DHT22;17936;52.446;10.840;2023-04-23T06:08:53;12.00;99.90
31309;DHT22;17936;52.446;10.840;2023-04-23T06:11:19;12.10;99.90
31309;DHT22;17936;52.446;10.840;2023-04-23T06:13:45;12.10;99.90
31309;DHT22;17936;52.446;10.840;2023-04-23T06:16:11;12.00;99.90
31309;DHT22;17936;52.446;10.840;2023-04-23T06:18:37;12.00;99.90
31309;DHT22;17936;52.446;10.840;2023-04-23T06:21:03;12.00;99.90
31309;DHT22;17936;52.446;10.840;2023-04-23T06:23:31;12.00;99.90
31309;DHT22;17936;52.446;10.840;2023-04-23T06:25:56;12.00;99.90
31309;DHT22;17936;52.446;10.840;2023-04-23T06:28:22;12.00;99.90
31309;DHT22;17936;52.446;10.840;2023-04-23T06:30:48;12.00;99.90
31309;DHT22;17936;52.446;10.840;2023-04-23T06:33:14;12.10;99.90
31309;DHT22;17936;52.446;10.840;2023-04-23T06:35:39;12.00;99.90
31309;DHT22;17936;52.446;10.840;2023-04-23T06:38:05;12.00;99.90
31309;DHT22;17936;52.446;10.840;2023-04-23T06:40:31;12.00;99.90
31309;DHT22;17936;52.446;10.840;2023-04-23T06:42:57;12.00;99.90
31309;DHT22;17936;52.446;10.840;2023-04-23T06:45:23;11.80;99.90
31309;DHT22;17936;52.446;10.840;2023-04-23T06:47:48;11.90;99.90
31309;DHT22;17936;52.446;10.840;2023-04-23T06:50:14;11.90;99.90
31309;DHT22;17936;52.446;10.840;2023-04-23T06:52:40;11.90;99.90
31309;DHT22;17936;52.446;10.840;2023-04-23T06:55:06;11.90;99.90
31309;DHT22;17936;52.446;10.840;2023-04-23T06:57:32;11.90;99.90
31309;DHT22;17936;52.446;10.840;2023-04-23T06:59:57;11.90;99.90
31309;DHT22;17936;52.446;10.840;2023-04-23T07:02:23;12.00;99.90
31309;DHT22;17936;52.446;10.840;2023-04-23T07:04:49;12.00;99.90
31309;DHT22;17936;52.446;10.840;2023-04-23T07:07:14;12.00;99.90
31309;DHT22;17936;52.446;10.840;2023-04-23T07:09:40;11.90;99.90
31309;DHT22;17936;52.446;10.840;2023-04-23T07:12:06;11.70;99.90
31309;DHT22;17936;52.446;10.840;2023-04-23T07:14:32;11.70;99.90
31309;DHT22;17936;52.446;10.840;2023-04-23T07:16:57;11.60;99.90
31309;DHT22;17936;52.446;10.840;2023-04-23T07:19:23;11.50;99.90
31309;DHT22;17936;52.446;10.840;2023-04-23T07:21:49;11.50;99.90
31309;DHT22;17936;52.446;10.840;2023-04-23T07:24:15;11.50;99.90
31309;DHT22;17936;52.446;10.840;2023-04-23T07:26:41;11.40;99.90
31309;DHT22;17936;52.446;10.840;2023-04-23T07:29:07;11.40;99.90
31309;DHT22;17936;52.446;10.840;2023-04-23T07:31:35;11.40;99.90
31309;DHT22;17936;52.446;10.840;2023-04-23T07:34:00;11.50;99.90
31309;DHT22;17936;52.446;10.840;2023-04-23T07:36:26;11.40;99.90
31309;DHT22;17936;52.446;10.840;2023-04-23T07:38:52;11.40;99.90
31309;DHT22;17936;52.446;10.840;2023-04-23T07:41:17;11.50;99.90
31309;DHT22;17936;52.446;10.840;2023-04-23T07:43:43;11.60;99.90
31309;DHT22;17936;52.446;10.840;2023-04-23T07:46:08;11.50;99.90
31309;DHT22;17936;52.446;10.840;2023-04-23T07:48:34;11.50;99.90
31309;DHT22;17936;52.446;10.840;2023-04-23T07:51:00;11.50;99.90
31309;DHT22;17936;52.446;10.840;2023-04-23T07:53:26;11.70;99.90
31309;DHT22;17936;52.446;10.840;2023-04-23T07:55:53;11.80;99.90
31309;DHT22;17936;52.446;10.840;2023-04-23T07:58:20;11.80;99.90
31309;DHT22;17936;52.446;10.840;2023-04-23T08:00:45;12.00;99.90
31309;DHT22;17936;52.446;10.840;2023-04-23T08:03:11;12.00;99.90
31309;DHT22;17936;52.446;10.840;2023-04-23T08:05:36;12.20;99.90
31309;DHT22;17936;52.446;10.840;2023-04-23T08:08:03;12.70;99.90
31309;DHT22;17936;52.446;10.840;2023-04-23T08:10:29;12.70;99.90
31309;DHT22;17936;52.446;10.840;2023-04-23T08:12:54;12.50;99.90
31309;DHT22;17936;52.446;10.840;2023-04-23T08:15:20;12.70;99.90
31309;DHT22;17936;52.446;10.840;2023-04-23T08:17:45;12.50;99.90
31309;DHT22;17936;52.446;10.840;2023-04-23T08:20:11;12.60;99.90
31309;DHT22;17936;52.446;10.840;2023-04-23T08:22:36;12.90;99.90
31309;DHT22;17936;52.446;10.840;2023-04-23T08:25:02;12.80;99.90
31309;DHT22;17936;52.446;10.840;2023-04-23T08:27:29;12.90;99.90
31309;DHT22;17936;52.446;10.840;2023-04-23T08:29:55;13.30;99.90
31309;DHT22;17936;52.446;10.840;2023-04-23T08:32:20;13.20;99.90
31309;DHT22;17936;52.446;10.840;2023-04-23T08:34:46;14.10;99.90
31309;DHT22;17936;52.446;10.840;2023-04-23T08:37:11;13.50;99.90
31309;DHT22;17936;52.446;10.840;2023-04-23T08:39:37;13.00;99.90
31309;DHT22;17936;52.446;10.840;2023-04-23T08:42:23;14.30;99.90
31309;DHT22;17936;52.446;10.840;2023-04-23T08:44:51;14.50;99.90
31309;DHT22;17936;52.446;10.840;2023-04-23T08:47:21;14.40;99.90
31309;DHT22;17936;52.446;10.840;2023-04-23T08:49:52;14.30;99.90
31309;DHT22;17936;52.446;10.840;2023-04-23T08:52:22;14.90;99.90
31309;DHT22;17936;52.446;10.840;2023-04-23T08:54:49;15.10;99.90
31309;DHT22;17936;52.446;10.840;2023-04-23T08:57:17;15.00;99.90
31309;DHT22;17936;52.446;10.840;2023-04-23T08:59:44;15.30;99.90
31309;DHT22;17936;52.446;10.840;2023-04-23T09:02:10;15.60;99.90
31309;DHT22;17936;52.446;10.840;2023-04-23T09:04:36;15.90;99.90
31309;DHT22;17936;52.446;10.840;2023-04-23T09:07:03;15.80;99.90
31309;DHT22;17936;52.446;10.840;2023-04-23T09:09:36;15.70;99.90
31309;DHT22;17936;52.446;10.840;2023-04-23T09:12:07;16.60;99.90
31309;DHT22;17936;52.446;10.840;2023-04-23T09:14:33;16.60;99.90
31309;DHT22;17936;52.446;10.840;2023-04-23T09:16:59;16.60;99.90
31309;DHT22;17936;52.446;10.840;2023-04-23T09:19:26;16.70;99.90
31309;DHT22;17936;52.446;10.840;2023-04-23T09:21:52;16.40;99.90
31309;DHT22;17936;52.446;10.840;2023-04-23T09:24:20;16.30;99.90
31309;DHT22;17936;52.446;10.840;2023-04-23T09:26:49;16.40;99.90
31309;DHT22;17936;52.446;10.840;2023-04-23T09:29:16;16.40;99.90
31309;DHT22;17936;52.446;10.840;2023-04-23T09:31:53;16.20;99.90
31309;DHT22;17936;52.446;10.840;2023-04-23T09:34:20;16.20;99.90
31309;DHT22;17936;52.446;10.840;2023-04-23T09:36:48;15.80;99.90
31309;DHT22;17936;52.446;10.840;2023-04-23T09:39:20;16.10;99.90
31309;DHT22;17936;52.446;10.840;2023-04-23T09:41:46;16.30;99.90
31309;DHT22;17936;52.446;10.840;2023-04-23T09:44:17;16.50;99.90
31309;DHT22;17936;52.446;10.840;2023-04-23T09:46:43;16.80;99.90
31309;DHT22;17936;52.446;10.840;2023-04-23T09:49:10;16.90;99.90
31309;DHT22;17936;52.446;10.840;2023-04-23T09:51:37;17.20;99.90
31309;DHT22;17936;52.446;10.840;2023-04-23T09:54:10;17.20;99.90
31309;DHT22;17936;52.446;10.840;2023-04-23T09:56:36;16.90;99.90
31309;DHT22;17936;52.446;10.840;2023-04-23T09:59:03;17.00;99.90
31309;DHT22;17936;52.446;10.840;2023-04-23T10:01:44;17.10;99.90
31309;DHT22;17936;52.446;10.840;2023-04-23T10:04:12;17.20;99.90
31309;DHT22;17936;52.446;10.840;2023-04-23T10:06:41;17.40;99.90
31309;DHT22;17936;52.446;10.840;2023-04-23T10:09:07;17.60;99.90
31309;DHT22;17936;52.446;10.840;2023-04-23T10:11:33;17.60;99.90
31309;DHT22;17936;52.446;10.840;2023-04-23T10:13:59;17.70;99.90
31309;DHT22;17936;52.446;10.840;2023-04-23T10:16:25;17.80;99.90
31309;DHT22;17936;52.446;10.840;2023-04-23T10:18:51;17.70;99.90
31309;DHT22;17936;52.446;10.840;2023-04-23T10:21:19;17.80;99.90
31309;DHT22;17936;52.446;10.840;2023-04-23T10:23:49;17.80;99.90
31309;DHT22;17936;52.446;10.840;2023-04-23T10:26:16;18.30;99.90
31309;DHT22;17936;52.446;10.840;2023-04-23T10:31:12;18.00;99.90
31309;DHT22;17936;52.446;10.840;2023-04-23T10:33:38;18.10;99.90
31309;DHT22;17936;52.446;10.840;2023-04-23T10:36:05;18.40;99.90
31309;DHT22;17936;52.446;10.840;2023-04-23T10:38:31;17.80;99.90
31309;DHT22;17936;52.446;10.840;2023-04-23T10:41:00;17.10;99.90
31309;DHT22;17936;52.446;10.840;2023-04-23T10:43:27;18.20;99.90
31309;DHT22;17936;52.446;10.840;2023-04-23T10:45:52;17.80;99.90
31309;DHT22;17936;52.446;10.840;2023-04-23T10:48:19;18.10;99.90
31309;DHT22;17936;52.446;10.840;2023-04-23T10:50:45;18.70;99.90
31309;DHT22;17936;52.446;10.840;2023-04-23T10:53:20;18.80;99.90
31309;DHT22;17936;52.446;10.840;2023-04-23T10:55:46;19.10;99.90
31309;DHT22;17936;52.446;10.840;2023-04-23T10:58:11;18.20;99.90
31309;DHT22;17936;52.446;10.840;2023-04-23T11:03:27;19.40;99.90
31309;DHT22;17936;52.446;10.840;2023-04-23T11:05:53;19.30;99.90
31309;DHT22;17936;52.446;10.840;2023-04-23T11:08:18;19.30;98.30
31309;DHT22;17936;52.446;10.840;2023-04-23T11:11:08;19.10;99.70
31309;DHT22;17936;52.446;10.840;2023-04-23T11:13:34;18.20;99.00
31309;DHT22;17936;52.446;10.840;2023-04-23T11:16:16;18.50;99.40
31309;DHT22;17936;52.446;10.840;2023-04-23T11:19:21;18.70;98.80
31309;DHT22;17936;52.446;10.840;2023-04-23T11:22:05;19.40;97.40
31309;DHT22;17936;52.446;10.840;2023-04-23T11:24:38;18.80;98.00
31309;DHT22;17936;52.446;10.840;2023-04-23T11:27:09;19.30;97.70
31309;DHT22;17936;52.446;10.840;2023-04-23T11:29:36;19.40;97.90
31309;DHT22;17936;52.446;10.840;2023-04-23T11:32:02;19.60;97.40
31309;DHT22;17936;52.446;10.840;2023-04-23T11:34:30;19.90;97.90
31309;DHT22;17936;52.446;10.840;2023-04-23T11:36:58;20.00;97.70
31309;DHT22;17936;52.446;10.840;2023-04-23T11:39:23;20.10;97.10
31309;DHT22;17936;52.446;10.840;2023-04-23T11:41:50;19.70;96.10
31309;DHT22;17936;52.446;10.840;2023-04-23T11:44:17;20.00;96.00
31309;DHT22;17936;52.446;10.840;2023-04-23T11:46:45;19.50;96.40
31309;DHT22;17936;52.446;10.840;2023-04-23T11:49:11;19.20;95.30
31309;DHT22;17936;52.446;10.840;2023-04-23T11:51:44;19.00;95.10
31309;DHT22;17936;52.446;10.840;2023-04-23T11:54:11;19.60;95.50
31309;DHT22;17936;52.446;10.840;2023-04-23T11:56:38;19.50;95.70
31309;DHT22;17936;52.446;10.840;2023-04-23T11:59:04;19.90;96.30
31309;DHT22;17936;52.446;10.840;2023-04-23T12:01:44;19.30;94.60
31309;DHT22;17936;52.446;10.840;2023-04-23T12:04:15;19.60;95.70
31309;DHT22;17936;52.446;10.840;2023-04-23T12:06:43;20.70;94.10
31309;DHT22;17936;52.446;10.840;2023-04-23T12:09:09;20.00;94.60
31309;DHT22;17936;52.446;10.840;2023-04-23T12:11:36;19.90;94.40
31309;DHT22;17936;52.446;10.840;2023-04-23T12:14:02;18.90;95.10
31309;DHT22;17936;52.446;10.840;2023-04-23T12:19:12;18.80;95.90
31309;DHT22;17936;52.446;10.840;2023-04-23T12:22:07;18.50;95.40
31309;DHT22;17936;52.446;10.840;2023-04-23T12:24:46;19.20;95.30
31309;DHT22;17936;52.446;10.840;2023-04-23T12:27:18;19.70;94.10
31309;DHT22;17936;52.446;10.840;2023-04-23T12:29:44;20.00;94.20
31309;DHT22;17936;52.446;10.840;2023-04-23T12:32:14;20.30;94.50
31309;DHT22;17936;52.446;10.840;2023-04-23T12:34:53;20.50;95.10
31309;DHT22;17936;52.446;10.840;2023-04-23T12:37:23;20.20;93.80
31309;DHT22;17936;52.446;10.840;2023-04-23T12:39:50;19.90;94.40
31309;DHT22;17936;52.446;10.840;2023-04-23T12:42:17;20.10;94.00
31309;DHT22;17936;52.446;10.840;2023-04-23T12:44:42;20.30;93.90
31309;DHT22;17936;52.446;10.840;2023-04-23T12:47:09;20.00;93.80
31309;DHT22;17936;52.446;10.840;2023-04-23T12:49:40;19.80;93.00
31309;DHT22;17936;52.446;10.840;2023-04-23T12:52:06;19.90;92.70
31309;DHT22;17936;52.446;10.840;2023-04-23T12:54:33;19.60;93.40
31309;DHT22;17936;52.446;10.840;2023-04-23T12:57:01;19.60;93.30
31309;DHT22;17936;52.446;10.840;2023-04-23T12:59:27;19.90;92.70
31309;DHT22;17936;52.446;10.840;2023-04-23T13:01:53;19.30;92.50
31309;DHT22;17936;52.446;10.840;2023-04-23T13:04:18;19.90;94.40
31309;DHT22;17936;52.446;10.840;2023-04-23T13:06:44;19.70;93.30
31309;DHT22;17936;52.446;10.840;2023-04-23T13:09:10;20.20;93.00
31309;DHT22;17936;52.446;10.840;2023-04-23T13:11:37;19.60;93.00
31309;DHT22;17936;52.446;10.840;2023-04-23T13:14:03;19.40;93.90
31309;DHT22;17936;52.446;10.840;2023-04-23T13:16:29;19.50;94.40
31309;DHT22;17936;52.446;10.840;2023-04-23T13:18:55;19.70;94.10
31309;DHT22;17936;52.446;10.840;2023-04-23T13:21:20;20.10;93.00
31309;DHT22;17936;52.446;10.840;2023-04-23T13:23:46;20.40;92.50
31309;DHT22;17936;52.446;10.840;2023-04-23T13:26:11;20.40;93.10
31309;DHT22;17936;52.446;10.840;2023-04-23T13:28:37;20.70;92.60
31309;DHT22;17936;52.446;10.840;2023-04-23T13:31:03;21.40;92.00
31309;DHT22;17936;52.446;10.840;2023-04-23T13:33:29;19.50;92.70
31309;DHT22;17936;52.446;10.840;2023-04-23T13:35:56;18.90;93.10
31309;DHT22;17936;52.446;10.840;2023-04-23T13:38:23;18.70;93.10
31309;DHT22;17936;52.446;10.840;2023-04-23T13:40:49;18.90;92.70
31309;DHT22;17936;52.446;10.840;2023-04-23T13:43:14;19.20;91.40
31309;DHT22;17936;52.446;10.840;2023-04-23T13:45:40;19.00;92.50
31309;DHT22;17936;52.446;10.840;2023-04-23T13:48:05;19.10;92.80
31309;DHT22;17936;52.446;10.840;2023-04-23T13:50:32;19.30;92.10
31309;DHT22;17936;52.446;10.840;2023-04-23T13:52:58;19.60;91.50
31309;DHT22;17936;52.446;10.840;2023-04-23T13:55:24;18.90;91.50
31309;DHT22;17936;52.446;10.840;2023-04-23T13:57:49;18.80;92.70
31309;DHT22;17936;52.446;10.840;2023-04-23T14:00:16;18.80;93.00
31309;DHT22;17936;52.446;10.840;2023-04-23T14:02:41;18.90;91.90
31309;DHT22;17936;52.446;10.840;2023-04-23T14:05:07;18.80;91.70
31309;DHT22;17936;52.446;10.840;2023-04-23T14:07:33;18.60;92.20
31309;DHT22;17936;52.446;10.840;2023-04-23T14:09:59;18.50;92.60
31309;DHT22;17936;52.446;10.840;2023-04-23T14:12:25;18.50;92.60
31309;DHT22;17936;52.446;10.840;2023-04-23T14:14:53;18.70;92.90
31309;DHT22;17936;52.446;10.840;2023-04-23T14:17:18;18.60;92.80
31309;DHT22;17936;52.446;10.840;2023-04-23T14:19:44;18.50;92.90
31309;DHT22;17936;52.446;10.840;2023-04-23T14:22:10;18.50;93.20
31309;DHT22;17936;52.446;10.840;2023-04-23T14:24:43;18.50;93.50
31309;DHT22;17936;52.446;10.840;2023-04-23T14:27:09;18.40;94.10
31309;DHT22;17936;52.446;10.840;2023-04-23T14:29:35;18.30;93.60
31309;DHT22;17936;52.446;10.840;2023-04-23T14:32:04;18.10;94.20
31309;DHT22;17936;52.446;10.840;2023-04-23T14:34:30;17.90;96.30
31309;DHT22;17936;52.446;10.840;2023-04-23T14:36:56;17.60;98.80
31309;DHT22;17936;52.446;10.840;2023-04-23T14:39:22;17.30;98.90
31309;DHT22;17936;52.446;10.840;2023-04-23T14:41:47;17.30;99.40
31309;DHT22;17936;52.446;10.840;2023-04-23T14:44:13;17.50;99.10
31309;DHT22;17936;52.446;10.840;2023-04-23T14:46:38;17.60;99.10
31309;DHT22;17936;52.446;10.840;2023-04-23T14:49:04;17.40;99.70
31309;DHT22;17936;52.446;10.840;2023-04-23T14:51:30;17.60;99.90
31309;DHT22;17936;52.446;10.840;2023-04-23T14:53:56;17.50;99.50
31309;DHT22;17936;52.446;10.840;2023-04-23T14:56:21;17.70;99.90
31309;DHT22;17936;52.446;10.840;2023-04-23T14:58:47;18.00;99.80
31309;DHT22;17936;52.446;10.840;2023-04-23T15:01:12;17.90;99.00
31309;DHT22;17936;52.446;10.840;2023-04-23T15:03:38;18.30;99.40
31309;DHT22;17936;52.446;10.840;2023-04-23T15:06:05;18.30;97.30
31309;DHT22;17936;52.446;10.840;2023-04-23T15:08:31;18.40;97.60
31309;DHT22;17936;52.446;10.840;2023-04-23T15:10:57;18.80;97.20
31309;DHT22;17936;52.446;10.840;2023-04-23T15:16:28;18.50;96.80
31309;DHT22;17936;52.446;10.840;2023-04-23T15:18:57;18.50;97.90
31309;DHT22;17936;52.446;10.840;2023-04-23T15:21:23;18.40;97.50
31309;DHT22;17936;52.446;10.840;2023-04-23T15:23:48;18.40;97.70